»·PEaware :: AAL215 KSFO-KDEN

AAL215 :: KSFO-KDEN

FLIGHT INFORMATION

Flight Status: Arrived
Operator:
American Airlines
More flights by this operator :: More flights under this callsign
Pilot: Mitch R. (11204)
Aircraft: BOEING 777-200
(B772)
More flights by this aircraft type
Origin: KSFO San Francisco Intl
United States
Destination: KDEN Denver Intl
United States
More flights between these airports :: More routes between these airports
Route: +GAPP7 NORMM OAK J84 EKR TOMSN6
File this flight plan on PilotEdge
Remarks: UNABLE OTHER DEPARTURES DUE TO NAV DATA / 777 PRONE TO CRASHING
Altitude:
(Current/Filed)
310,000ft
Speed:
(Current/Filed)
480kts
Departed: 21-Dec-17 07:00 PM
Arrived: 21-Dec-17 09:05 PM
Distance/Time
Traveled:
838nm/2:04
Distance/Time
To Go:
Arrived

Flight Plot

Page will automatically refresh every two minutes.

Flight plan parsing failed; only flown route is shown


Map Options




Map Legend


Flown Route
Filed Route
Departure Airport
Arrival Airport
Navaid (VOR, NDB)
Fix

Horizontal Profiles

Position Reports

Time Latitude Longitude Heading Altitude Ground
Speed
21-Dec-17 18:42 37.621362 -122.389135 210 29ft 0kts
21-Dec-17 18:43 37.621362 -122.389135 210 29ft 0kts
21-Dec-17 18:44 37.621362 -122.389135 210 29ft 0kts
21-Dec-17 18:45 37.621362 -122.389135 210 29ft 0kts
21-Dec-17 18:46 37.621362 -122.389135 210 29ft 0kts
21-Dec-17 18:47 37.621362 -122.389135 210 29ft 0kts
21-Dec-17 18:48 37.621362 -122.389135 210 29ft 0kts
21-Dec-17 18:49 37.621362 -122.389135 210 29ft 0kts
21-Dec-17 18:50 37.621362 -122.389135 210 29ft 0kts
21-Dec-17 18:51 37.621362 -122.389135 210 29ft 0kts
21-Dec-17 18:52 37.621362 -122.389135 210 29ft 0kts
21-Dec-17 18:53 37.621462 -122.388787 93 29ft 0kts
21-Dec-17 18:54 37.621473 -122.388609 83 29ft 0kts
21-Dec-17 18:55 37.621473 -122.388610 83 29ft 0kts
21-Dec-17 18:56 37.621473 -122.388610 83 29ft 0kts
21-Dec-17 18:57 37.621537 -122.388323 69 29ft 6kts
21-Dec-17 18:58 37.621238 -122.385727 120 29ft 12kts
21-Dec-17 18:59 37.619703 -122.382141 118 29ft 13kts
21-Dec-17 19:00 37.618177 -122.378317 111 29ft 9kts
21-Dec-17 19:01 37.617290 -122.375470 113 29ft 15kts
21-Dec-17 19:02 37.615048 -122.369977 118 29ft 19kts
21-Dec-17 19:03 37.612406 -122.364815 117 29ft 17kts
21-Dec-17 19:04 37.610604 -122.359546 63 29ft 18kts
21-Dec-17 19:05 37.611958 -122.359021 298 29ft 0kts
21-Dec-17 19:06 37.615527 -122.367572 297 30ft 134kts
21-Dec-17 19:07 37.644847 -122.435104 298 2225ft 253kts
21-Dec-17 19:08 37.675560 -122.515089 294 2985ft 250kts
21-Dec-17 19:09 37.722591 -122.569563 8 3940ft 261kts
21-Dec-17 19:10 37.749838 -122.497276 104 5550ft 283kts
21-Dec-17 19:11 37.742595 -122.400306 95 10012ft 295kts
21-Dec-17 19:12 37.731814 -122.284974 97 12941ft 379kts
21-Dec-17 19:13 37.747226 -122.157918 63 17288ft 393kts
21-Dec-17 19:14 37.787484 -122.032121 61 21887ft 406kts
21-Dec-17 19:15 37.828005 -121.894406 63 25946ft 434kts
21-Dec-17 19:16 37.868608 -121.749753 62 30225ft 452kts
21-Dec-17 19:17 37.910316 -121.600476 62 31289ft 460kts
21-Dec-17 19:18 37.953571 -121.444881 62 31284ft 489kts
21-Dec-17 19:19 37.994509 -121.296416 63 31282ft 489kts
21-Dec-17 19:20 38.037925 -121.138198 63 31283ft 478kts
21-Dec-17 19:21 38.078046 -120.982934 69 31280ft 486kts
21-Dec-17 19:22 38.107131 -120.821033 69 31301ft 485kts
21-Dec-17 19:23 38.135979 -120.657755 69 31323ft 485kts
21-Dec-17 19:24 38.165035 -120.491747 69 31301ft 486kts
21-Dec-17 19:25 38.193278 -120.328884 70 31296ft 487kts
21-Dec-17 19:26 38.221816 -120.162826 70 31295ft 487kts
21-Dec-17 19:27 38.250208 -119.996150 70 31296ft 487kts
21-Dec-17 19:28 38.278004 -119.831483 70 31296ft 487kts
21-Dec-17 19:29 38.306312 -119.662234 70 31296ft 487kts
21-Dec-17 19:30 38.334136 -119.494313 70 31296ft 487kts
21-Dec-17 19:31 38.361406 -119.328201 70 31293ft 488kts
21-Dec-17 19:32 38.388815 -119.159625 70 31293ft 488kts
21-Dec-17 19:33 38.415845 -118.991795 70 31293ft 488kts
21-Dec-17 19:34 38.442829 -118.822625 70 31293ft 488kts
21-Dec-17 19:35 38.469455 -118.654062 70 31293ft 488kts
21-Dec-17 19:36 38.495891 -118.485056 70 31371ft 491kts
21-Dec-17 19:37 38.521491 -118.319726 71 31371ft 491kts
21-Dec-17 19:38 38.547609 -118.149321 71 31349ft 493kts
21-Dec-17 19:39 38.573930 -117.978431 71 31291ft 492kts
21-Dec-17 19:40 38.600766 -117.807601 71 31291ft 492kts
21-Dec-17 19:41 38.627068 -117.637497 69 31294ft 480kts
21-Dec-17 19:42 38.652695 -117.472200 69 31291ft 475kts
21-Dec-17 19:43 38.676956 -117.312191 68 31278ft 466kts
21-Dec-17 19:44 38.702073 -117.147314 69 31288ft 476kts
21-Dec-17 19:45 38.726820 -116.981702 69 31287ft 475kts
21-Dec-17 19:46 38.751317 -116.816266 69 31287ft 475kts
21-Dec-17 19:47 38.775682 -116.650032 69 31286ft 475kts
21-Dec-17 19:48 38.799648 -116.484830 69 31337ft 475kts
21-Dec-17 19:49 38.823018 -116.322043 70 31338ft 474kts
21-Dec-17 19:50 38.846433 -116.157249 70 31338ft 473kts
21-Dec-17 19:51 38.869656 -115.992076 70 31337ft 473kts
21-Dec-17 19:52 38.892630 -115.826894 70 31337ft 473kts
21-Dec-17 19:53 38.914710 -115.666015 69 31233ft 461kts
21-Dec-17 19:54 38.936658 -115.505228 69 31228ft 464kts
21-Dec-17 19:55 38.958270 -115.344774 70 31227ft 464kts
21-Dec-17 19:56 38.979380 -115.186384 70 31226ft 465kts
21-Dec-17 19:57 39.000832 -115.023625 70 31226ft 465kts
21-Dec-17 19:58 39.021911 -114.861905 70 31225ft 466kts
21-Dec-17 19:59 39.042813 -114.699577 69 31225ft 467kts
21-Dec-17 20:00 39.063621 -114.536422 70 31225ft 466kts
21-Dec-17 20:01 39.080898 -114.399339 70 31224ft 466kts
21-Dec-17 20:02 39.104103 -114.213150 70 31248ft 467kts
21-Dec-17 20:03 39.120926 -114.076543 70 31246ft 467kts
21-Dec-17 20:04 39.144213 -113.885193 70 31246ft 467kts
21-Dec-17 20:05 39.160657 -113.748406 70 31245ft 466kts
21-Dec-17 20:06 39.179946 -113.586196 70 31245ft 467kts
21-Dec-17 20:07 39.199137 -113.422729 70 31245ft 468kts
21-Dec-17 20:08 39.217675 -113.262753 71 31244ft 469kts
21-Dec-17 20:09 39.237536 -113.090795 72 31245ft 519kts
21-Dec-17 20:10 39.257951 -112.908199 72 31243ft 517kts
21-Dec-17 20:11 39.278274 -112.725411 72 31244ft 518kts
21-Dec-17 20:12 39.298353 -112.542163 72 31245ft 521kts
21-Dec-17 20:13 39.328366 -112.362609 65 31246ft 513kts
21-Dec-17 20:14 39.362059 -112.186233 66 31238ft 517kts
21-Dec-17 20:15 39.395276 -112.006583 67 31239ft 518kts
21-Dec-17 20:16 39.428445 -111.825474 67 31241ft 521kts
21-Dec-17 20:17 39.461449 -111.643358 67 31242ft 523kts
21-Dec-17 20:18 39.494334 -111.460273 67 31154ft 528kts
21-Dec-17 20:19 39.526906 -111.277163 68 31071ft 531kts
21-Dec-17 20:20 39.559646 -111.091238 68 31072ft 534kts
21-Dec-17 20:21 39.592227 -110.904388 68 31075ft 536kts
21-Dec-17 20:22 39.624573 -110.716956 69 31078ft 539kts
21-Dec-17 20:23 39.656998 -110.527026 69 31080ft 541kts
21-Dec-17 20:24 39.688763 -110.339085 70 31078ft 545kts
21-Dec-17 20:25 39.720774 -110.147740 70 31070ft 548kts
21-Dec-17 20:26 39.752569 -109.955566 70 31073ft 551kts
21-Dec-17 20:27 39.784371 -109.761151 71 31084ft 554kts
21-Dec-17 20:28 39.815726 -109.567385 71 31133ft 556kts
21-Dec-17 20:29 39.847543 -109.370347 77 31141ft 572kts
21-Dec-17 20:30 39.878445 -109.173053 78 31127ft 571kts
21-Dec-17 20:31 39.909716 -108.972925 78 31131ft 571kts
21-Dec-17 20:32 39.940718 -108.772301 78 31135ft 572kts
21-Dec-17 20:33 39.971151 -108.572726 79 31139ft 572kts
21-Dec-17 20:34 40.001367 -108.372180 79 31141ft 572kts
21-Dec-17 20:35 40.029988 -108.180047 80 31102ft 572kts
21-Dec-17 20:36 40.058778 -107.984273 80 31106ft 572kts
21-Dec-17 20:37 40.098131 -107.791871 75 31111ft 569kts
21-Dec-17 20:38 40.139270 -107.614472 73 31105ft 573kts
21-Dec-17 20:39 40.180352 -107.436484 76 31104ft 575kts
21-Dec-17 20:40 40.222876 -107.248213 77 31121ft 574kts
21-Dec-17 20:41 40.266807 -107.053134 77 31125ft 574kts
21-Dec-17 20:42 40.311292 -106.853889 77 31103ft 574kts
21-Dec-17 20:43 40.346951 -106.692863 77 31064ft 575kts
21-Dec-17 20:44 40.390665 -106.493870 77 31048ft 573kts
21-Dec-17 20:45 40.433513 -106.297030 78 29746ft 574kts
21-Dec-17 20:46 40.475172 -106.103977 77 27528ft 526kts
21-Dec-17 20:47 40.512848 -105.925207 81 25907ft 508kts
21-Dec-17 20:48 40.519010 -105.761815 96 23816ft 408kts
21-Dec-17 20:49 40.500973 -105.624508 135 22254ft 360kts
21-Dec-17 20:50 40.433758 -105.533262 143 20695ft 345kts
21-Dec-17 20:51 40.365470 -105.447930 142 19203ft 337kts
21-Dec-17 20:52 40.294417 -105.362136 142 18367ft 353kts
21-Dec-17 20:53 40.224712 -105.278622 141 16950ft 348kts
21-Dec-17 20:54 40.154643 -105.194943 140 15504ft 343kts
21-Dec-17 20:55 40.087130 -105.110051 137 14125ft 337kts
21-Dec-17 20:56 40.021448 -105.027235 137 13653ft 332kts
21-Dec-17 20:57 39.956612 -104.945783 136 12591ft 317kts
21-Dec-17 20:58 39.894255 -104.867591 136 11340ft 310kts
21-Dec-17 20:59 39.819421 -104.830298 177 10958ft 302kts
21-Dec-17 21:00 39.741861 -104.826596 177 10016ft 278kts
21-Dec-17 21:01 39.666419 -104.822970 177 8883ft 274kts
21-Dec-17 21:02 39.593770 -104.819467 177 7963ft 267kts
21-Dec-17 21:03 39.546803 -104.771942 77 7838ft 235kts
21-Dec-17 21:04 39.581717 -104.714307 27 7955ft 207kts
21-Dec-17 21:05 39.629263 -104.682410 27 7974ft 185kts
21-Dec-17 21:06 39.677638 -104.660665 4 7983ft 186kts
21-Dec-17 21:07 39.729160 -104.662766 357 7144ft 187kts
21-Dec-17 21:08 39.779010 -104.661515 0 6303ft 182kts
21-Dec-17 21:09 39.822952 -104.660628 0 5427ft 176kts
21-Dec-17 21:10 39.850015 -104.660318 357 5334ft 52kts
21-Dec-17 21:11 39.856409 -104.662363 343 5334ft 15kts
21-Dec-17 21:12 39.856566 -104.666507 269 5334ft 0kts

Navigation Log

Ident Type
Flight plan parsing failed, navigation log unavailable